Time;durP1;ratioP1;P1;durP2;ratioP2;P2;SDS_P1;SDS_P2;PMS_P1;PMS_P2;Temp;Humidity;BMP_temperature;BMP_pressure;BME280_temperature;BME280_humidity;BME280_pressure;Samples;Min_cycle;Max_cycle;Signal;HPM_P1;HPM_P2
2023/03/15 00:00:00;;;;;;;0.28;0.28;;;;;;;8.22;69.71;101087.88;4970233;28;20046;-61
2023/03/15 00:02:25;;;;;;;0.35;0.35;;;;;;;8.12;70.44;101100.00;4971400;28;20118;-59
2023/03/15 00:04:53;;;;;;;0.30;0.30;;;;;;;8.29;69.85;101087.91;4971004;28;20089;-61
2023/03/15 00:07:24;;;;;;;0.40;0.40;;;;;;;8.97;66.43;101100.06;4972107;28;20110;-63
2023/03/15 00:09:50;;;;;;;;;;;;;;;8.87;67.50;101103.16;4971428;28;20093;-59
2023/03/15 00:12:16;;;;;;;0.50;0.50;;;;;;;8.35;69.59;101100.50;4971374;28;20020;-60
2023/03/15 00:14:41;;;;;;;0.20;0.20;;;;;;;9.07;66.20;101108.50;4969121;28;20050;-59
2023/03/15 00:17:06;;;;;;;0.30;0.30;;;;;;;9.09;66.35;101114.47;4958118;28;20101;-60
2023/03/15 00:19:32;;;;;;;0.30;0.30;;;;;;;8.58;68.05;101114.31;4960313;28;20083;-60
2023/03/15 00:21:57;;;;;;;0.30;0.30;;;;;;;8.82;66.55;101127.09;4967725;28;20073;-60
2023/03/15 00:24:22;;;;;;;0.25;0.25;;;;;;;8.77;67.49;101124.19;4955673;28;20134;-61
2023/03/15 00:26:48;;;;;;;0.32;0.32;;;;;;;8.57;68.91;101126.06;4964071;28;20048;-60
2023/03/15 00:29:13;;;;;;;0.35;0.35;;;;;;;8.49;67.48;101127.06;4967064;28;20059;-61
2023/03/15 00:31:38;;;;;;;0.30;0.30;;;;;;;8.49;67.94;101128.94;4960899;28;20073;-60
2023/03/15 00:34:04;;;;;;;0.30;0.30;;;;;;;8.40;67.94;101127.47;4970846;28;20034;-59
2023/03/15 00:36:31;;;;;;;0.38;0.38;;;;;;;8.05;69.94;101133.94;4975576;28;20066;-61
2023/03/15 00:38:56;;;;;;;0.35;0.35;;;;;;;9.05;67.14;101127.47;4970997;28;20049;-61
2023/03/15 00:41:23;;;;;;;0.30;0.30;;;;;;;8.08;69.67;101139.72;4975425;28;20046;-60
2023/03/15 00:43:49;;;;;;;0.30;0.30;;;;;;;9.34;65.71;101127.00;4974638;28;20054;-61
2023/03/15 00:46:16;;;;;;;0.40;0.40;;;;;;;8.85;65.68;101129.34;4975636;28;20497;-61
2023/03/15 00:48:41;;;;;;;0.30;0.30;;;;;;;9.29;65.22;101134.03;4968235;28;20148;-60
2023/03/15 00:51:20;;;;;;;0.30;0.30;;;;;;;9.53;64.85;101133.38;4965595;28;20466;-60
2023/03/15 00:53:46;;;;;;;0.40;0.40;;;;;;;9.30;64.91;101141.88;4959675;28;20081;-61
2023/03/15 00:56:14;;;;;;;0.30;0.30;;;;;;;8.95;66.67;101142.31;4974091;28;20399;-59
2023/03/15 00:58:40;;;;;;;0.30;0.30;;;;;;;8.83;66.80;101147.47;4982744;28;20046;-61
2023/03/15 01:01:14;;;;;;;0.45;0.45;;;;;;;9.27;65.53;101153.03;4975476;28;20034;-60
2023/03/15 01:03:41;;;;;;;0.35;0.35;;;;;;;9.06;65.87;101157.81;4978984;28;20045;-61
2023/03/15 01:06:12;;;;;;;0.40;0.40;;;;;;;9.01;67.62;101154.91;4994732;28;20049;-61
2023/03/15 01:08:37;;;;;;;;;;;;;;;8.83;67.48;101160.88;4994748;28;20108;-61
2023/03/15 01:11:05;;;;;;;0.35;0.35;;;;;;;8.76;67.69;101165.41;4994070;28;19914;-60
2023/03/15 01:13:30;;;;;;;0.35;0.35;;;;;;;8.97;65.37;101162.53;4994275;28;20034;-61
2023/03/15 01:15:56;;;;;;;0.30;0.30;;;;;;;8.61;67.43;101173.63;4994851;28;20108;-60
2023/03/15 01:18:21;;;;;;;0.20;0.20;;;;;;;8.93;66.51;101172.00;4994282;28;20401;-61
2023/03/15 01:20:47;;;;;;;0.30;0.30;;;;;;;9.61;64.54;101170.69;4994226;28;20034;-60
2023/03/15 01:23:12;;;;;;;0.30;0.30;;;;;;;8.54;66.44;101169.31;4993879;28;20034;-63
2023/03/15 01:25:37;;;;;;;0.30;0.30;;;;;;;9.27;65.50;101179.00;4994152;28;20034;-62
2023/03/15 01:28:03;;;;;;;0.40;0.40;;;;;;;8.53;67.18;101175.72;4994850;28;20112;-60
2023/03/15 01:30:28;;;;;;;0.38;0.38;;;;;;;8.05;67.94;101166.91;4994559;28;20044;-61
2023/03/15 01:32:53;;;;;;;0.50;0.50;;;;;;;9.02;66.07;101178.00;4993791;28;20077;-60
2023/03/15 01:35:19;;;;;;;0.43;0.43;;;;;;;9.44;64.83;101164.13;4994063;28;20074;-60
2023/03/15 01:37:44;;;;;;;0.40;0.40;;;;;;;8.94;65.12;101168.31;4994234;28;20081;-60
2023/03/15 01:40:13;;;;;;;0.40;0.40;;;;;;;8.66;66.42;101173.88;4993438;28;20030;-62
2023/03/15 01:43:04;;;;;;;0.30;0.30;;;;;;;9.15;64.81;101181.50;4993762;28;20117;-59
2023/03/15 01:45:51;;;;;;;0.20;0.20;;;;;;;9.05;65.92;101182.94;4994252;28;20097;-61
2023/03/15 01:48:17;;;;;;;0.28;0.28;;;;;;;8.77;65.92;101185.81;4993990;28;20505;-61
2023/03/15 01:50:43;;;;;;;0.30;0.30;;;;;;;8.82;66.51;101184.16;4993631;28;20039;-60
2023/03/15 01:53:09;;;;;;;0.40;0.40;;;;;;;8.64;65.76;101188.50;4993611;28;20125;-60
2023/03/15 01:55:35;;;;;;;0.35;0.35;;;;;;;8.36;67.79;101199.34;4993074;28;20458;-60
2023/03/15 01:58:01;;;;;;;0.32;0.32;;;;;;;9.13;64.39;101206.84;4993876;28;20138;-61
2023/03/15 02:00:26;;;;;;;0.30;0.30;;;;;;;9.04;65.24;101218.84;4992194;28;20517;-59
2023/03/15 02:03:17;;;;;;;0.25;0.25;;;;;;;9.15;65.89;101224.41;4993515;28;20522;-62
2023/03/15 02:05:47;;;;;;;0.38;0.38;;;;;;;9.00;65.39;101226.47;4952364;29;20131;-60
2023/03/15 02:08:16;;;;;;;0.30;0.30;;;;;;;9.15;66.31;101228.94;4952329;29;20054;-59
2023/03/15 02:10:45;;;;;;;0.30;0.30;;;;;;;8.81;66.43;101233.44;4970198;28;20046;-60
2023/03/15 02:13:14;;;;;;;0.30;0.30;;;;;;;9.53;65.68;101230.75;4971649;28;20034;-60
2023/03/15 02:15:45;;;;;;;0.30;0.30;;;;;;;9.57;63.15;101239.22;4971235;28;20049;-61
2023/03/15 02:18:14;;;;;;;0.40;0.40;;;;;;;8.66;66.82;101238.16;4971158;28;20501;-60
2023/03/15 02:21:22;;;;;;;0.30;0.30;;;;;;;9.60;64.06;101239.63;4970923;28;20038;-60
2023/03/15 02:24:01;;;;;;;0.30;0.30;;;;;;;9.49;63.66;101245.59;4970880;28;20039;-59
2023/03/15 02:26:42;;;;;;;0.30;0.30;;;;;;;9.30;63.18;101245.63;4970485;28;20042;-61
2023/03/15 02:29:08;;;;;;;0.20;0.20;;;;;;;9.04;64.13;101256.34;4970788;28;20035;-59
2023/03/15 02:31:36;;;;;;;0.50;0.50;;;;;;;9.58;62.57;101249.75;4970994;28;20035;-61
2023/03/15 02:34:06;;;;;;;0.30;0.30;;;;;;;9.00;63.40;101255.94;4971003;28;20019;-60
2023/03/15 02:36:33;;;;;;;0.50;0.50;;;;;;;9.65;62.18;101255.91;4970845;28;20093;-59
2023/03/15 02:38:59;;;;;;;0.40;0.40;;;;;;;9.83;61.48;101260.63;4970014;28;20046;-62
2023/03/15 02:41:37;;;;;;;0.30;0.30;;;;;;;9.98;61.27;101268.44;4970729;28;20043;-61
2023/03/15 02:44:10;;;;;;;0.40;0.40;;;;;;;10.61;58.55;101273.00;4992228;28;20107;-62
2023/03/15 02:46:36;;;;;;;0.40;0.40;;;;;;;9.98;60.28;101271.13;4992541;28;20026;-61
2023/03/15 02:49:03;;;;;;;0.38;0.38;;;;;;;9.33;61.60;101272.03;4993100;28;20030;-60
2023/03/15 02:51:29;;;;;;;0.40;0.40;;;;;;;10.03;59.22;101287.41;4992252;28;20031;-61
2023/03/15 02:53:54;;;;;;;0.30;0.30;;;;;;;9.74;59.92;101294.94;4991816;28;20573;-62
2023/03/15 02:56:20;;;;;;;0.30;0.30;;;;;;;9.77;60.16;101290.19;4992648;28;20072;-59
2023/03/15 02:58:46;;;;;;;0.30;0.30;;;;;;;9.18;61.95;101303.59;4976959;28;20031;-60
2023/03/15 03:01:12;;;;;;;0.55;0.55;;;;;;;9.63;61.58;101310.84;4973329;28;20546;-61
2023/03/15 03:03:39;;;;;;;0.40;0.40;;;;;;;8.30;65.79;101331.34;4972698;28;20061;-60
2023/03/15 03:06:05;;;;;;;0.20;0.20;;;;;;;8.12;66.59;101330.19;4972899;28;20082;-60
2023/03/15 03:08:30;;;;;;;0.30;0.30;;;;;;;7.72;67.55;101340.63;4972085;28;20510;-61
2023/03/15 03:10:55;;;;;;;0.20;0.20;;;;;;;7.42;68.65;101346.31;4972526;28;20031;-60
2023/03/15 03:13:21;;;;;;;0.30;0.30;;;;;;;7.82;67.39;101349.13;4973371;28;20043;-61
2023/03/15 03:15:49;;;;;;;0.30;0.30;;;;;;;7.15;69.29;101345.25;4972455;28;20469;-60
2023/03/15 03:18:14;;;;;;;0.30;0.30;;;;;;;8.76;63.40;101348.47;4972500;28;20149;-60
2023/03/15 03:20:39;;;;;;;0.47;0.47;;;;;;;9.03;61.42;101341.31;4972331;28;20499;-60
2023/03/15 03:23:05;;;;;;;0.30;0.30;;;;;;;9.18;61.64;101339.25;4972092;28;20035;-60
2023/03/15 03:25:32;;;;;;;0.32;0.32;;;;;;;9.31;60.16;101349.19;4972366;28;20121;-60
2023/03/15 03:27:57;;;;;;;0.38;0.38;;;;;;;9.75;58.24;101344.03;4972771;28;20026;-61
2023/03/15 03:30:24;;;;;;;0.30;0.30;;;;;;;10.08;56.63;101354.75;4972611;28;20502;-59
2023/03/15 03:32:49;;;;;;;0.30;0.30;;;;;;;10.09;56.61;101369.81;4972759;28;20368;-60
2023/03/15 03:35:15;;;;;;;0.30;0.30;;;;;;;10.05;56.58;101371.28;4971761;28;20042;-60
2023/03/15 03:37:40;;;;;;;0.32;0.32;;;;;;;10.33;55.11;101375.41;4973182;28;20390;-61
2023/03/15 03:40:07;;;;;;;0.32;0.32;;;;;;;10.11;56.24;101381.22;4973201;28;20098;-61
2023/03/15 03:42:33;;;;;;;0.40;0.40;;;;;;;10.34;55.18;101387.78;4973180;28;20174;-61
2023/03/15 03:44:59;;;;;;;0.30;0.30;;;;;;;10.32;55.31;101389.84;4973004;28;20068;-61
2023/03/15 03:47:24;;;;;;;0.40;0.40;;;;;;;10.38;55.00;101391.69;4973158;28;20380;-60
2023/03/15 03:49:49;;;;;;;0.47;0.47;;;;;;;10.32;54.73;101397.91;4973068;28;20065;-61
2023/03/15 03:52:14;;;;;;;0.32;0.32;;;;;;;10.26;54.95;101397.94;4973398;28;20166;-62
2023/03/15 03:54:41;;;;;;;0.40;0.40;;;;;;;10.39;54.74;101395.22;4972497;28;20117;-62
2023/03/15 03:57:07;;;;;;;0.40;0.40;;;;;;;10.30;54.77;101399.19;4974476;28;20142;-60
2023/03/15 03:59:33;;;;;;;0.40;0.40;;;;;;;10.30;55.02;101404.53;4992373;28;20058;-60
2023/03/15 04:01:58;;;;;;;0.35;0.35;;;;;;;10.22;55.51;101405.56;4991713;28;20094;-59
2023/03/15 04:04:25;;;;;;;0.50;0.50;;;;;;;10.21;55.34;101412.00;4992708;28;20034;-61
2023/03/15 04:06:50;;;;;;;0.30;0.30;;;;;;;10.26;55.26;101414.06;4992087;28;20058;-61
2023/03/15 04:09:25;;;;;;;0.30;0.30;;;;;;;10.34;55.04;101422.69;4991841;28;20072;-62
2023/03/15 04:11:50;;;;;;;0.35;0.35;;;;;;;10.20;55.33;101420.25;4992029;28;20034;-61
2023/03/15 04:14:16;;;;;;;0.40;0.40;;;;;;;10.19;55.22;101429.34;4992119;28;20066;-62
2023/03/15 04:16:41;;;;;;;0.30;0.30;;;;;;;10.28;54.99;101430.78;4991995;28;20032;-59
2023/03/15 04:19:08;;;;;;;0.45;0.45;;;;;;;10.36;55.30;101435.91;4992371;28;20031;-61
2023/03/15 04:21:34;;;;;;;0.40;0.40;;;;;;;10.01;55.96;101447.91;4992121;28;20049;-62
2023/03/15 04:24:00;;;;;;;0.40;0.40;;;;;;;9.98;56.73;101451.00;4991801;28;20034;-61
2023/03/15 04:26:27;;;;;;;0.47;0.47;;;;;;;9.81;56.77;101458.63;4991787;28;20083;-60
2023/03/15 04:28:54;;;;;;;0.35;0.35;;;;;;;9.72;57.55;101459.88;4997851;28;20042;-61
2023/03/15 04:31:20;;;;;;;0.50;0.50;;;;;;;10.09;56.18;101453.06;4999253;28;20081;-61
2023/03/15 04:33:45;;;;;;;0.30;0.30;;;;;;;9.34;58.67;101469.47;4973914;28;20478;-60
2023/03/15 04:36:17;;;;;;;0.30;0.30;;;;;;;9.62;57.73;101467.47;4991931;28;20070;-59
2023/03/15 04:38:45;;;;;;;0.32;0.32;;;;;;;9.85;57.41;101470.59;4991828;28;20591;-59
2023/03/15 04:41:11;;;;;;;0.45;0.45;;;;;;;10.11;56.02;101476.03;4991926;28;20034;-60
2023/03/15 04:43:36;;;;;;;0.35;0.35;;;;;;;10.07;56.50;101484.66;4991882;28;20109;-60
2023/03/15 04:46:01;;;;;;;0.20;0.20;;;;;;;10.37;55.34;101488.63;4991958;28;20018;-60
2023/03/15 04:48:27;;;;;;;0.30;0.30;;;;;;;10.03;56.98;101499.53;4991915;28;20068;-65
2023/03/15 04:50:52;;;;;;;0.50;0.50;;;;;;;9.57;59.03;101507.53;4991744;28;20499;-61
2023/03/15 04:53:17;;;;;;;0.30;0.30;;;;;;;7.34;64.84;101528.25;4991692;28;20483;-60
2023/03/15 04:55:43;;;;;;;0.30;0.30;;;;;;;7.58;66.47;101522.56;4991463;28;20474;-61
2023/03/15 04:58:08;;;;;;;0.30;0.30;;;;;;;9.03;61.68;101522.75;4974301;28;20046;-61
2023/03/15 05:00:33;;;;;;;0.45;0.45;;;;;;;7.38;65.65;101524.19;4990263;28;20129;-61
2023/03/15 05:02:59;;;;;;;0.30;0.30;;;;;;;8.06;65.04;101524.50;4991068;28;20603;-61
2023/03/15 05:05:24;;;;;;;0.20;0.20;;;;;;;8.52;63.14;101532.94;4991197;28;20069;-60
2023/03/15 05:07:50;;;;;;;0.28;0.28;;;;;;;8.86;61.56;101530.31;4990742;28;20046;-60
2023/03/15 05:10:16;;;;;;;0.60;0.60;;;;;;;9.61;59.46;101531.03;4992022;28;20494;-61
2023/03/15 05:12:41;;;;;;;0.50;0.50;;;;;;;9.59;59.19;101532.28;4991428;28;20034;-60
2023/03/15 05:15:07;;;;;;;0.50;0.50;;;;;;;9.29;59.91;101529.09;4994914;28;20031;-60
2023/03/15 05:17:33;;;;;;;0.30;0.30;;;;;;;9.36;59.93;101527.25;4995519;28;20506;-60
2023/03/15 05:20:00;;;;;;;0.38;0.38;;;;;;;9.46;59.41;101527.69;4995046;28;20038;-60
2023/03/15 05:22:26;;;;;;;0.30;0.30;;;;;;;9.50;59.35;101542.38;5002837;28;20033;-61
2023/03/15 05:24:54;;;;;;;0.35;0.35;;;;;;;8.94;60.57;101540.03;5014469;28;20038;-60
2023/03/15 05:27:19;;;;;;;0.30;0.30;;;;;;;9.11;59.88;101544.03;5003085;28;20065;-60
2023/03/15 05:29:45;;;;;;;0.50;0.50;;;;;;;9.69;56.93;101538.91;4994919;28;20069;-60
2023/03/15 05:32:10;;;;;;;0.35;0.35;;;;;;;9.48;58.31;101538.22;4995101;28;20088;-60
2023/03/15 05:34:36;;;;;;;0.40;0.40;;;;;;;9.48;57.87;101552.47;4993238;28;20042;-60
2023/03/15 05:37:01;;;;;;;0.40;0.40;;;;;;;8.73;60.05;101554.31;4995325;28;20082;-62
2023/03/15 05:39:27;;;;;;;0.40;0.40;;;;;;;8.20;63.26;101557.56;4994980;28;20142;-60
2023/03/15 05:41:52;;;;;;;0.30;0.30;;;;;;;9.41;58.77;101561.53;4993008;28;20054;-61
2023/03/15 05:44:17;;;;;;;0.38;0.38;;;;;;;8.36;61.22;101568.88;4992262;28;20100;-61
2023/03/15 05:46:43;;;;;;;0.30;0.30;;;;;;;9.72;56.41;101570.72;4991708;28;20026;-60
2023/03/15 05:49:09;;;;;;;0.40;0.40;;;;;;;9.53;56.71;101584.06;4993211;28;20085;-60
2023/03/15 05:51:35;;;;;;;0.40;0.40;;;;;;;8.65;59.98;101586.59;4992240;28;20065;-62
2023/03/15 05:54:00;;;;;;;0.30;0.30;;;;;;;9.02;59.75;101586.25;4992635;28;20490;-59
2023/03/15 05:56:25;;;;;;;0.32;0.32;;;;;;;9.65;57.25;101579.78;4991943;28;20066;-62
2023/03/15 05:58:51;;;;;;;0.38;0.38;;;;;;;9.48;57.33;101575.78;4976514;28;20047;-59
2023/03/15 06:01:17;;;;;;;0.30;0.30;;;;;;;9.97;56.67;101583.56;4973693;28;20043;-60
2023/03/15 06:03:42;;;;;;;0.40;0.40;;;;;;;10.12;55.50;101585.09;4973409;28;20047;-61
2023/03/15 06:06:08;;;;;;;0.30;0.30;;;;;;;10.15;55.10;101578.50;4973165;28;20042;-61
2023/03/15 06:08:33;;;;;;;0.50;0.50;;;;;;;10.45;54.63;101585.16;4972217;28;20459;-62
2023/03/15 06:10:59;;;;;;;0.40;0.40;;;;;;;10.36;55.45;101584.50;4972617;28;20502;-61
2023/03/15 06:13:24;;;;;;;0.28;0.28;;;;;;;9.48;57.41;101592.72;4974522;28;20035;-60
2023/03/15 06:15:49;;;;;;;0.30;0.30;;;;;;;9.58;58.02;101587.81;4974451;28;20430;-59
2023/03/15 06:18:16;;;;;;;0.30;0.30;;;;;;;9.58;57.95;101593.19;4973852;28;20517;-59
2023/03/15 06:20:42;;;;;;;0.30;0.30;;;;;;;9.26;58.32;101603.72;4974216;28;20125;-61
2023/03/15 06:23:08;;;;;;;0.40;0.40;;;;;;;8.39;61.65;101607.84;4973951;28;20117;-60
2023/03/15 06:25:33;;;;;;;0.30;0.30;;;;;;;8.76;60.56;101616.41;4973586;28;20474;-61
2023/03/15 06:28:00;;;;;;;0.30;0.30;;;;;;;8.53;61.42;101609.63;4974555;28;20027;-62
2023/03/15 06:30:25;;;;;;;0.40;0.40;;;;;;;8.39;61.43;101618.56;4973627;28;20510;-60
2023/03/15 06:32:51;;;;;;;0.20;0.20;;;;;;;8.08;62.94;101615.31;4973882;28;20123;-60
2023/03/15 06:35:17;;;;;;;0.30;0.30;;;;;;;8.74;61.26;101625.66;4972526;28;20384;-62
2023/03/15 06:37:42;;;;;;;0.43;0.43;;;;;;;9.14;60.13;101635.63;4973224;28;20029;-62
2023/03/15 06:40:09;;;;;;;0.30;0.30;;;;;;;9.64;57.72;101639.84;4974633;28;20027;-60
2023/03/15 06:42:35;;;;;;;0.30;0.30;;;;;;;9.69;57.03;101643.56;4973106;28;20049;-61
2023/03/15 06:45:02;;;;;;;0.38;0.38;;;;;;;9.50;57.79;101635.44;4973088;28;20086;-60
2023/03/15 06:47:28;;;;;;;0.60;0.60;;;;;;;9.67;57.39;101647.47;4968454;28;20137;-61
2023/03/15 06:49:53;;;;;;;0.30;0.30;;;;;;;9.79;56.56;101653.94;4972909;28;20061;-60
2023/03/15 06:52:19;;;;;;;0.60;0.60;;;;;;;9.70;56.99;101658.66;4962540;28;20474;-62
2023/03/15 06:54:44;;;;;;;0.50;0.50;;;;;;;9.55;56.93;101655.28;4972395;28;20491;-61
2023/03/15 06:57:10;;;;;;;0.50;0.50;;;;;;;9.33;58.50;101661.75;4974169;28;20038;-59
2023/03/15 06:59:35;;;;;;;0.50;0.50;;;;;;;9.35;58.07;101659.72;4991986;28;20042;-61
2023/03/15 07:02:01;;;;;;;0.40;0.40;;;;;;;9.89;56.60;101675.03;4990636;28;20509;-61
2023/03/15 07:04:26;;;;;;;0.40;0.40;;;;;;;9.18;59.13;101679.78;4991353;28;20034;-60
2023/03/15 07:06:52;;;;;;;0.30;0.30;;;;;;;9.30;58.17;101680.91;4991629;28;20026;-62
2023/03/15 07:09:18;;;;;;;0.50;0.50;;;;;;;9.10;59.52;101687.97;4990190;28;20129;-59
2023/03/15 07:11:43;;;;;;;0.40;0.40;;;;;;;9.32;59.05;101688.75;4992480;28;20046;-60
2023/03/15 07:14:09;;;;;;;0.30;0.30;;;;;;;9.96;56.54;101692.00;4990296;28;20042;-61
2023/03/15 07:16:34;;;;;;;0.30;0.30;;;;;;;9.14;58.32;101696.50;4991714;28;20065;-59
2023/03/15 07:19:00;;;;;;;0.50;0.50;;;;;;;9.23;59.53;101704.19;4992337;28;20438;-60
2023/03/15 07:21:26;;;;;;;0.40;0.40;;;;;;;9.74;57.66;101708.25;4992286;28;20121;-59
2023/03/15 07:23:52;;;;;;;0.40;0.40;;;;;;;9.42;58.31;101702.66;4992128;28;20545;-60
2023/03/15 07:26:17;;;;;;;0.50;0.50;;;;;;;9.47;58.14;101705.59;4991874;28;20042;-61
2023/03/15 07:28:43;;;;;;;0.30;0.30;;;;;;;9.65;58.15;101714.78;4991769;28;20041;-60
2023/03/15 07:31:10;;;;;;;0.30;0.30;;;;;;;9.82;57.01;101714.44;4992258;28;20041;-60
2023/03/15 07:33:36;;;;;;;0.30;0.30;;;;;;;10.07;56.04;101719.13;4991640;28;20516;-62
2023/03/15 07:36:03;;;;;;;0.30;0.30;;;;;;;10.01;57.54;101721.75;4991567;28;20042;-61
2023/03/15 07:38:29;;;;;;;0.40;0.40;;;;;;;9.91;57.82;101715.94;4991540;28;20061;-60
2023/03/15 07:40:54;;;;;;;0.30;0.30;;;;;;;9.73;57.79;101730.72;4985629;28;20038;-60
2023/03/15 07:43:20;;;;;;;0.32;0.32;;;;;;;9.30;59.50;101745.28;4972977;28;20113;-60
2023/03/15 07:45:45;;;;;;;0.30;0.30;;;;;;;10.01;57.16;101744.09;4972189;28;20034;-61
2023/03/15 07:48:11;;;;;;;0.40;0.40;;;;;;;9.92;57.25;101752.50;4972406;28;20046;-60
2023/03/15 07:50:37;;;;;;;0.40;0.40;;;;;;;10.60;56.29;101758.59;4988961;28;20048;-60
2023/03/15 07:53:03;;;;;;;0.40;0.40;;;;;;;9.75;57.62;101760.03;4991910;28;20035;-60
2023/03/15 07:55:30;;;;;;;0.47;0.47;;;;;;;9.99;58.01;101774.84;4991729;28;20545;-59
2023/03/15 07:57:55;;;;;;;0.40;0.40;;;;;;;9.65;57.93;101765.75;4991409;28;20046;-60
2023/03/15 08:00:21;;;;;;;0.57;0.57;;;;;;;9.95;58.39;101770.88;4991854;28;20074;-60
2023/03/15 08:02:47;;;;;;;0.57;0.57;;;;;;;10.20;56.91;101772.91;4991677;28;20405;-60
2023/03/15 08:05:13;;;;;;;0.20;0.20;;;;;;;10.10;57.38;101777.00;4991878;28;20112;-60
2023/03/15 08:07:38;;;;;;;0.38;0.38;;;;;;;10.66;56.08;101781.16;4989347;28;20026;-60
2023/03/15 08:10:05;;;;;;;0.32;0.32;;;;;;;10.38;56.44;101781.25;5010766;28;20044;-60
2023/03/15 08:12:30;;;;;;;0.30;0.30;;;;;;;11.14;53.77;101792.63;5010850;28;20501;-63
2023/03/15 08:14:56;;;;;;;0.43;0.43;;;;;;;9.85;58.37;101786.56;4991490;28;20037;-59
2023/03/15 08:17:21;;;;;;;0.20;0.20;;;;;;;10.27;57.28;101791.75;4991498;28;20034;-60
2023/03/15 08:19:46;;;;;;;0.30;0.30;;;;;;;9.68;58.16;101794.91;4991605;28;20347;-61
2023/03/15 08:22:12;;;;;;;0.20;0.20;;;;;;;10.64;56.32;101791.28;4992194;28;20085;-61
2023/03/15 08:24:37;;;;;;;0.40;0.40;;;;;;;9.98;57.80;101792.00;4991684;28;20129;-61
2023/03/15 08:27:03;;;;;;;0.40;0.40;;;;;;;10.19;57.60;101798.13;4991467;28;20038;-61
2023/03/15 08:29:30;;;;;;;0.20;0.20;;;;;;;10.14;58.52;101783.66;4991470;28;20129;-60
2023/03/15 08:31:56;;;;;;;0.30;0.30;;;;;;;10.66;57.08;101791.91;4991376;28;20089;-60
2023/03/15 08:34:22;;;;;;;0.43;0.43;;;;;;;11.26;54.28;101797.16;4991798;28;20030;-60
2023/03/15 08:36:48;;;;;;;0.22;0.22;;;;;;;10.88;55.92;101806.00;4991285;28;20387;-62
2023/03/15 08:39:14;;;;;;;0.30;0.30;;;;;;;11.13;56.13;101805.22;4991592;28;20085;-62
2023/03/15 08:41:40;;;;;;;0.30;0.30;;;;;;;9.85;58.11;101808.84;4990529;28;20435;-60
2023/03/15 08:44:06;;;;;;;0.35;0.35;;;;;;;11.09;56.51;101814.75;5009421;28;20129;-61
2023/03/15 08:46:32;;;;;;;0.47;0.47;;;;;;;10.49;57.92;101818.31;4996421;28;20193;-62
2023/03/15 08:48:57;;;;;;;0.30;0.30;;;;;;;10.05;58.63;101822.38;4993545;28;20026;-60
2023/03/15 08:51:24;;;;;;;0.30;0.30;;;;;;;10.38;58.36;101826.94;4995489;28;20388;-60
2023/03/15 08:53:50;;;;;;;0.40;0.40;;;;;;;10.81;57.05;101827.50;4995026;28;20270;-61
2023/03/15 08:56:16;;;;;;;0.30;0.30;;;;;;;10.95;55.95;101831.88;4994640;28;20062;-60
2023/03/15 08:58:41;;;;;;;0.30;0.30;;;;;;;11.14;56.34;101827.59;4994387;28;20173;-59
2023/03/15 09:01:10;;;;;;;0.32;0.32;;;;;;;11.52;55.01;101827.84;4995732;28;20040;-61
2023/03/15 09:03:35;;;;;;;0.30;0.30;;;;;;;11.46;55.23;101830.31;4995066;28;20046;-61
2023/03/15 09:06:01;;;;;;;0.32;0.32;;;;;;;11.39;53.84;101836.72;4995020;28;20043;-61
2023/03/15 09:08:26;;;;;;;0.32;0.32;;;;;;;10.83;54.69;101841.56;4994875;28;20076;-61
2023/03/15 09:10:55;;;;;;;0.22;0.22;;;;;;;10.75;55.27;101836.38;4994474;28;20042;-61
2023/03/15 09:13:21;;;;;;;0.30;0.30;;;;;;;10.36;55.21;101839.75;4994419;28;20080;-60
2023/03/15 09:15:50;;;;;;;0.32;0.32;;;;;;;10.94;54.10;101835.63;4994646;28;20038;-60
2023/03/15 09:18:16;;;;;;;0.20;0.20;;;;;;;11.02;54.67;101837.28;4994575;28;20405;-60
2023/03/15 09:20:42;;;;;;;0.30;0.30;;;;;;;11.41;51.84;101832.78;4994470;28;20049;-60
2023/03/15 09:23:07;;;;;;;0.30;0.30;;;;;;;11.30;51.95;101840.66;4994356;28;20042;-61
2023/03/15 09:25:32;;;;;;;0.40;0.40;;;;;;;11.63;52.13;101838.81;4994528;28;20113;-62
2023/03/15 09:27:58;;;;;;;0.35;0.35;;;;;;;11.27;52.70;101836.50;4994565;28;20113;-60
2023/03/15 09:30:23;;;;;;;0.30;0.30;;;;;;;11.77;51.16;101832.41;4997511;28;20100;-61
2023/03/15 09:32:50;;;;;;;0.28;0.28;;;;;;;12.07;49.59;101838.97;5012723;28;20083;-61
2023/03/15 09:35:18;;;;;;;0.43;0.43;;;;;;;11.65;51.41;101842.13;4999753;28;20039;-61
2023/03/15 09:37:43;;;;;;;0.50;0.50;;;;;;;12.04;49.50;101838.56;4993858;28;20062;-59
2023/03/15 09:40:30;;;;;;;0.40;0.40;;;;;;;12.27;50.40;101841.63;4994556;28;20036;-60
2023/03/15 09:43:06;;;;;;;0.30;0.30;;;;;;;11.58;51.85;101860.13;4993732;28;20034;-59
2023/03/15 09:45:50;;;;;;;0.50;0.50;;;;;;;11.79;51.01;101853.75;4993590;28;20085;-61
2023/03/15 09:48:31;;;;;;;0.20;0.20;;;;;;;11.21;51.48;101863.41;4993578;28;20494;-61
2023/03/15 09:51:04;;;;;;;0.50;0.50;;;;;;;11.54;51.84;101864.25;4993830;28;20046;-59
2023/03/15 09:53:32;;;;;;;0.20;0.20;;;;;;;12.12;48.83;101858.06;4993851;28;20084;-59
2023/03/15 09:55:58;;;;;;;0.40;0.40;;;;;;;12.90;46.84;101853.38;4993772;28;20181;-60
2023/03/15 09:58:31;;;;;;;0.30;0.30;;;;;;;12.43;47.74;101857.34;4993467;28;20113;-60
2023/03/15 10:01:03;;;;;;;0.20;0.20;;;;;;;12.61;46.38;101862.03;4993080;28;20050;-62
2023/03/15 10:03:41;;;;;;;0.50;0.50;;;;;;;12.53;46.62;101867.66;4993096;28;20035;-60
2023/03/15 10:06:34;;;;;;;0.40;0.40;;;;;;;12.20;47.87;101870.47;4993428;28;20046;-60
2023/03/15 10:09:09;;;;;;;0.35;0.35;;;;;;;13.06;46.49;101861.03;4993296;28;20093;-61
2023/03/15 10:11:46;;;;;;;0.30;0.30;;;;;;;12.13;48.06;101872.31;4993093;28;20038;-62
2023/03/15 10:14:21;;;;;;;0.40;0.40;;;;;;;12.38;47.14;101867.09;4993439;28;20502;-60
2023/03/15 10:16:49;;;;;;;0.40;0.40;;;;;;;12.82;45.85;101877.91;4993949;28;20390;-61
2023/03/15 10:19:50;;;;;;;0.50;0.50;;;;;;;12.91;47.62;101872.06;4993992;28;20100;-60
2023/03/15 10:22:26;;;;;;;0.50;0.50;;;;;;;13.69;43.50;101865.34;4993528;28;20058;-59
2023/03/15 10:24:55;;;;;;;0.40;0.40;;;;;;;12.98;45.05;101867.47;4993388;28;20035;-60
2023/03/15 10:27:35;;;;;;;0.20;0.20;;;;;;;13.08;45.28;101877.81;4993194;28;20030;-60
2023/03/15 10:30:11;;;;;;;0.40;0.40;;;;;;;12.32;45.57;101879.56;4993710;28;20038;-59
2023/03/15 10:32:42;;;;;;;0.40;0.40;;;;;;;13.15;45.25;101884.84;4993257;28;20119;-63
2023/03/15 10:35:16;;;;;;;0.32;0.32;;;;;;;13.15;46.58;101886.69;4988611;28;20122;-61
2023/03/15 10:37:42;;;;;;;0.40;0.40;;;;;;;12.75;44.89;101891.44;4999136;28;20053;-61
2023/03/15 10:40:15;;;;;;;0.30;0.30;;;;;;;13.42;44.07;101884.69;5012696;28;20033;-60
2023/03/15 10:42:45;;;;;;;0.40;0.40;;;;;;;13.64;43.47;101881.38;4997135;28;20100;-59
2023/03/15 10:45:24;;;;;;;0.38;0.38;;;;;;;13.35;41.18;101890.09;4992554;28;20042;-60
2023/03/15 10:47:51;;;;;;;0.50;0.50;;;;;;;13.31;42.51;101885.34;4992410;28;20042;-62
2023/03/15 10:50:25;;;;;;;0.30;0.30;;;;;;;13.11;43.19;101891.69;4992385;28;20042;-60
2023/03/15 10:52:55;;;;;;;0.50;0.50;;;;;;;11.71;45.54;101905.09;4992333;28;20030;-61
2023/03/15 10:55:30;;;;;;;0.43;0.43;;;;;;;13.13;42.45;101900.41;4993630;28;20023;-60
2023/03/15 10:58:00;;;;;;;0.43;0.43;;;;;;;13.69;41.31;101900.47;4991129;28;20457;-61
2023/03/15 11:00:32;;;;;;;0.43;0.43;;;;;;;13.57;41.47;101907.63;4992745;28;20091;-65
2023/03/15 11:03:14;;;;;;;0.40;0.40;;;;;;;13.28;40.92;101912.78;4992480;28;20551;-61
2023/03/15 11:05:42;;;;;;;0.20;0.20;;;;;;;13.16;42.39;101905.41;4992206;28;20042;-61
2023/03/15 11:08:13;;;;;;;0.30;0.30;;;;;;;13.69;42.00;101913.13;4973081;28;20108;-60
2023/03/15 11:10:38;;;;;;;0.40;0.40;;;;;;;14.05;41.73;101910.56;4972982;28;20110;-60
2023/03/15 11:13:27;;;;;;;0.40;0.40;;;;;;;13.87;41.66;101913.22;4973118;28;20457;-62
2023/03/15 11:16:18;;;;;;;0.30;0.30;;;;;;;14.69;41.78;101913.66;4978466;28;20093;-62
2023/03/15 11:18:45;;;;;;;;;;;;;;;15.35;37.51;101915.50;4992515;28;20042;-60
2023/03/15 11:21:14;;;;;;;0.35;0.35;;;;;;;13.34;41.49;101914.63;4992483;28;19925;-61
2023/03/15 11:23:43;;;;;;;0.35;0.35;;;;;;;13.67;39.87;101917.94;4983700;28;20509;-60
2023/03/15 11:26:20;;;;;;;0.40;0.40;;;;;;;13.80;42.42;101923.22;5001973;28;20579;-61
2023/03/15 11:28:51;;;;;;;0.45;0.45;;;;;;;14.41;39.92;101929.56;5007810;28;20035;-61
2023/03/15 11:31:23;;;;;;;0.25;0.25;;;;;;;13.41;39.05;101931.59;4991262;28;20473;-63
2023/03/15 11:33:56;;;;;;;0.35;0.35;;;;;;;14.18;37.18;101933.94;4991627;28;20512;-61